ESOK 162220Z AUTO 33010KT 9999 BKN011/// M04/M05 Q0982